Time;durP1;ratioP1;P1;durP2;ratioP2;P2;SDS_P1;SDS_P2;PMS_P1;PMS_P2;Temp;Humidity;BMP_temperature;BMP_pressure;BME280_temperature;BME280_humidity;BME280_pressure;Samples;Min_cycle;Max_cycle;Signal;HPM_P1;HPM_P2
2022/01/25 00:09:21;;;;;;;;;;;;;;;22.24;14.23;99094.09;5073413;28;1982;-74
2022/01/25 00:31:15;;;;;;;;;;;;;;;22.33;13.98;99091.56;5033821;28;948;-74
2022/01/25 00:33:42;;;;;;;;;;;;;;;22.48;13.66;99089.31;5013011;28;944;-74
2022/01/25 00:36:09;;;;;;;;;;;;;;;22.35;13.68;99089.88;5013803;28;938;-73
2022/01/25 00:38:34;;;;;;;;;;;;;;;22.10;13.97;99092.19;5013690;28;983;-73
2022/01/25 00:40:59;;;;;;;;;;;;;;;21.88;14.33;99088.78;5013954;28;1109;-73
2022/01/25 00:43:26;;;;;;;;;;;;;;;21.97;14.31;99088.28;5013294;28;959;-73
2022/01/25 00:45:54;;;;;;;;;;;;;;;21.79;14.48;99085.63;4993843;28;1033;-73
2022/01/25 00:48:31;;;;;;;;;;;;;;;21.74;14.42;99084.06;4977769;28;1029;-73
2022/01/25 00:51:17;;;;;;;;;;;;;;;21.73;14.12;99065.47;4994322;28;1009;-73
2022/01/25 00:53:58;;;;;;;;;;;;;;;22.05;14.21;99078.47;4994054;28;1052;-74
2022/01/25 00:56:25;;;;;;;;;;;;;;;22.06;14.01;99065.91;4994141;28;1065;-73
2022/01/25 00:58:50;;;;;;;;;;;;;;;21.73;14.43;99071.13;4994809;28;1168;-73
2022/01/25 01:01:16;;;;;;;;;;;;;;;22.08;14.36;99063.47;4965513;28;1005;-73
2022/01/25 01:03:42;;;;;;;;;;;;;;;21.75;14.20;99073.53;4997920;28;926;-73
2022/01/25 01:06:07;;;;;;;;;;;;;;;21.61;14.56;99068.81;4997915;28;987;-73
2022/01/25 01:08:33;;;;;;;;;;;;;;;22.05;14.16;99058.63;5036097;28;1957;-73
2022/01/25 01:11:01;;;;;;;;;;;;;;;21.74;14.48;99063.44;5057434;28;938;-73
2022/01/25 01:48:30;;;;;;;;;;;;;;;22.18;14.01;99042.72;4938810;29;930;-73
2022/01/25 01:50:58;;;;;;;;;;;;;;;22.18;13.95;99037.06;4939125;29;1960;-74
2022/01/25 01:53:23;;;;;;;;;;;;;;;21.92;14.41;99032.09;4938791;29;1046;-73
2022/01/25 01:55:48;;;;;;;;;;;;;;;22.32;13.99;99031.19;4982662;28;1066;-73
2022/01/25 01:58:14;;;;;;;;;;;;;;;22.21;13.92;99029.72;4996735;28;1198;-73
2022/01/25 02:00:41;;;;;;;;;;;;;;;21.98;14.07;99024.72;4980819;28;952;-73
2022/01/25 02:03:06;;;;;;;;;;;;;;;22.86;13.73;99022.72;4996467;28;1063;-73
2022/01/25 02:05:32;;;;;;;;;;;;;;;23.13;13.42;99016.22;4996771;28;983;-74
2022/01/25 02:07:57;;;;;;;;;;;;;;;22.42;13.88;99020.91;4996502;28;982;-74
2022/01/25 02:10:23;;;;;;;;;;;;;;;22.19;14.01;99024.47;4963012;28;1926;-73
2022/01/25 02:12:50;;;;;;;;;;;;;;;22.60;13.77;99018.66;4980713;28;952;-73
2022/01/25 02:15:19;;;;;;;;;;;;;;;23.05;13.41;99017.56;4997022;28;1106;-73
2022/01/25 02:23:00;;;;;;;;;;;;;;;21.82;14.53;99019.63;5052687;28;1015;-74
2022/01/25 02:25:28;;;;;;;;;;;;;;;22.88;13.44;99020.28;5058285;28;919;-74
2022/01/25 02:27:54;;;;;;;;;;;;;;;23.00;13.28;99018.06;5058310;28;906;-73
2022/01/25 02:30:19;;;;;;;;;;;;;;;22.14;14.28;99004.31;5057878;28;1969;-73
2022/01/25 02:32:45;;;;;;;;;;;;;;;22.39;14.05;99004.78;5058197;28;971;-74
2022/01/25 02:35:10;;;;;;;;;;;;;;;21.77;14.50;99003.91;5058193;28;861;-73
2022/01/25 02:37:38;;;;;;;;;;;;;;;21.95;14.62;99002.88;5057810;28;905;-73
2022/01/25 02:40:03;;;;;;;;;;;;;;;21.95;14.36;98989.50;5057670;28;930;-73
2022/01/25 02:42:29;;;;;;;;;;;;;;;21.75;14.59;98989.34;5057941;28;903;-74
2022/01/25 02:44:54;;;;;;;;;;;;;;;21.58;14.65;98988.31;5057663;28;1155;-73
2022/01/25 02:50:07;;;;;;;;;;;;;;;21.92;14.39;98978.25;5057445;28;1910;-73
2022/01/25 02:52:32;;;;;;;;;;;;;;;22.24;14.17;98975.81;5057793;28;1094;-73
2022/01/25 02:54:57;;;;;;;;;;;;;;;21.91;14.24;98980.25;5057530;28;984;-73
2022/01/25 02:57:23;;;;;;;;;;;;;;;22.34;13.99;98972.03;5057796;28;856;-73
2022/01/25 02:59:48;;;;;;;;;;;;;;;22.03;14.37;98965.53;5057849;28;1214;-73
2022/01/25 03:02:14;;;;;;;;;;;;;;;21.91;14.39;98962.44;5057951;28;942;-74
2022/01/25 03:04:39;;;;;;;;;;;;;;;22.04;14.10;98966.34;5057178;28;957;-73
2022/01/25 03:07:05;;;;;;;;;;;;;;;21.68;14.69;98955.44;5057564;28;984;-73
2022/01/25 03:09:30;;;;;;;;;;;;;;;22.12;14.35;98962.19;5057194;28;1972;-72
2022/01/25 03:11:57;;;;;;;;;;;;;;;22.35;13.88;98959.44;5057393;28;908;-73
2022/01/25 03:14:26;;;;;;;;;;;;;;;21.56;14.71;98958.84;5057315;28;1013;-74
2022/01/25 03:22:04;;;;;;;;;;;;;;;21.91;14.55;98945.44;5074222;28;975;-73
2022/01/25 03:24:29;;;;;;;;;;;;;;;21.67;14.73;98942.50;5074653;28;948;-73
2022/01/25 03:26:55;;;;;;;;;;;;;;;22.14;14.33;98948.41;5074591;28;1149;-73
2022/01/25 03:29:20;;;;;;;;;;;;;;;22.28;13.86;98948.22;5074336;28;1909;-73
2022/01/25 03:31:45;;;;;;;;;;;;;;;21.81;14.54;98950.84;5074578;28;934;-74
2022/01/25 03:34:11;;;;;;;;;;;;;;;22.22;13.98;98947.06;5074463;28;1018;-73
2022/01/25 03:36:37;;;;;;;;;;;;;;;22.03;14.05;98947.72;5074373;28;1182;-73
2022/01/25 03:39:03;;;;;;;;;;;;;;;22.04;14.23;98943.66;5074134;28;1023;-73
2022/01/25 03:41:30;;;;;;;;;;;;;;;21.78;14.53;98936.72;5074465;28;1005;-73
2022/01/25 03:43:56;;;;;;;;;;;;;;;21.86;14.44;98938.22;5073911;28;1025;-73
2022/01/25 03:51:40;;;;;;;;;;;;;;;22.09;14.03;98935.50;5072714;28;1108;-73
2022/01/25 03:54:06;;;;;;;;;;;;;;;22.24;14.11;98936.13;5056241;28;1197;-73
2022/01/25 03:56:31;;;;;;;;;;;;;;;21.67;14.64;98951.00;5056880;28;961;-73
2022/01/25 03:58:57;;;;;;;;;;;;;;;21.74;14.36;98933.91;5056591;28;1033;-73
2022/01/25 04:01:22;;;;;;;;;;;;;;;21.71;14.43;98943.28;5056501;28;912;-73
2022/01/25 04:04:06;;;;;;;;;;;;;;;21.57;14.62;98934.94;5056241;28;1037;-74
2022/01/25 04:06:33;;;;;;;;;;;;;;;22.00;14.40;98925.91;5056630;28;973;-74
2022/01/25 04:08:59;;;;;;;;;;;;;;;22.32;14.19;98931.94;5071339;28;1909;-73
2022/01/25 04:11:25;;;;;;;;;;;;;;;22.09;14.06;98931.84;5056539;28;813;-73
2022/01/25 04:13:52;;;;;;;;;;;;;;;21.73;14.53;98923.81;5056161;28;915;-73
2022/01/25 04:16:22;;;;;;;;;;;;;;;21.82;14.52;98918.44;5056110;28;983;-73
2022/01/25 04:21:29;;;;;;;;;;;;;;;21.90;14.62;98915.50;5056635;28;950;-73
2022/01/25 04:26:38;;;;;;;;;;;;;;;21.97;14.38;98921.09;5055956;28;817;-73
2022/01/25 04:29:04;;;;;;;;;;;;;;;21.71;14.49;98914.94;5055996;28;1975;-73
2022/01/25 04:31:29;;;;;;;;;;;;;;;21.72;14.74;98912.91;5056342;28;927;-73
2022/01/25 04:34:24;;;;;;;;;;;;;;;22.25;13.91;98919.91;5071497;28;976;-73
2022/01/25 04:50:25;;;;;;;;;;;;;;;21.90;14.61;98912.69;5059835;28;1976;-73
2022/01/25 04:53:05;;;;;;;;;;;;;;;21.68;14.56;98915.78;5059921;28;905;-73
2022/01/25 04:55:45;;;;;;;;;;;;;;;22.44;14.07;98907.88;5059819;28;859;-73
2022/01/25 04:58:18;;;;;;;;;;;;;;;22.26;13.85;98919.47;5059711;28;1273;-73
2022/01/25 05:00:46;;;;;;;;;;;;;;;22.38;14.13;98914.44;5056927;28;1046;-74
2022/01/25 05:03:16;;;;;;;;;;;;;;;22.31;13.91;98919.00;5041162;28;1267;-73
2022/01/25 05:05:55;;;;;;;;;;;;;;;22.61;13.84;98915.28;5057696;28;948;-73
2022/01/25 05:08:38;;;;;;;;;;;;;;;22.31;13.99;98916.16;5057585;28;943;-72
2022/01/25 05:13:45;;;;;;;;;;;;;;;22.04;14.22;98906.81;5024340;28;923;-74
2022/01/25 05:16:32;;;;;;;;;;;;;;;22.12;14.29;98908.34;5057842;28;1090;-73
2022/01/25 05:24:15;;;;;;;;;;;;;;;22.04;14.29;98904.00;5028433;28;1133;-73
2022/01/25 05:26:40;;;;;;;;;;;;;;;21.88;14.20;98898.16;5057232;28;1072;-74
2022/01/25 05:29:06;;;;;;;;;;;;;;;21.99;14.28;98896.75;5016538;28;1971;-74
2022/01/25 05:31:31;;;;;;;;;;;;;;;21.84;14.27;98892.53;5025781;28;958;-73
2022/01/25 05:33:56;;;;;;;;;;;;;;;22.11;14.12;98892.56;5036618;28;1192;-74
2022/01/25 05:36:22;;;;;;;;;;;;;;;21.65;14.83;98888.31;5036980;28;994;-73
2022/01/25 05:38:48;;;;;;;;;;;;;;;22.11;14.34;98892.56;5036687;28;940;-73
2022/01/25 05:41:15;;;;;;;;;;;;;;;21.95;14.43;98889.53;5037053;28;1003;-73
2022/01/25 05:44:03;;;;;;;;;;;;;;;21.89;14.24;98889.22;5036466;28;914;-73
2022/01/25 05:49:20;;;;;;;;;;;;;;;21.97;13.95;98887.09;4977664;28;1980;-73
2022/01/25 05:51:45;;;;;;;;;;;;;;;22.15;14.17;98901.81;4977951;28;955;-73
2022/01/25 05:54:11;;;;;;;;;;;;;;;21.89;14.19;98906.22;4977476;28;977;-73
2022/01/25 05:56:37;;;;;;;;;;;;;;;22.17;14.44;98907.06;4977855;28;987;-73
2022/01/25 05:59:02;;;;;;;;;;;;;;;22.22;14.25;98909.41;4980176;28;1059;-73
2022/01/25 06:01:28;;;;;;;;;;;;;;;21.91;14.31;98911.44;5016604;28;995;-73
2022/01/25 06:03:54;;;;;;;;;;;;;;;22.00;14.57;98920.22;5016625;28;1016;-73
2022/01/25 06:06:20;;;;;;;;;;;;;;;22.35;14.16;98921.78;5016477;28;1217;-74
2022/01/25 06:08:45;;;;;;;;;;;;;;;21.87;14.18;98930.53;4996600;28;1914;-73
2022/01/25 06:11:10;;;;;;;;;;;;;;;22.25;14.11;98932.06;4977393;28;956;-73
2022/01/25 06:13:36;;;;;;;;;;;;;;;22.41;14.07;98933.44;4976754;28;1004;-73
2022/01/25 06:16:04;;;;;;;;;;;;;;;21.38;14.66;98935.56;4977561;28;930;-73
2022/01/25 06:18:29;;;;;;;;;;;;;;;22.02;14.50;98920.59;4976884;28;1006;-73
2022/01/25 06:20:55;;;;;;;;;;;;;;;22.19;14.26;98919.59;4977494;28;921;-73
2022/01/25 06:23:20;;;;;;;;;;;;;;;21.59;14.88;98913.47;4976922;28;952;-74
2022/01/25 06:25:45;;;;;;;;;;;;;;;21.69;14.85;98910.94;4997801;28;1162;-73
2022/01/25 06:28:13;;;;;;;;;;;;;;;22.34;14.17;98903.97;5035875;28;984;-73
2022/01/25 06:30:41;;;;;;;;;;;;;;;21.59;14.68;98895.66;5036333;28;1989;-73
2022/01/25 06:33:09;;;;;;;;;;;;;;;21.93;14.25;98898.47;5035883;28;992;-73
2022/01/25 06:35:35;;;;;;;;;;;;;;;22.17;14.35;98885.19;5036019;28;985;-74
2022/01/25 06:38:00;;;;;;;;;;;;;;;22.28;14.11;98876.53;5034949;28;1604;-66
2022/01/25 06:40:26;;;;;;;;;;;;;;;22.95;13.89;98882.31;5060136;28;1595;-65
2022/01/25 06:42:51;;;;;;;;;;;;;;;23.22;13.82;98880.19;5072654;28;1602;-66
2022/01/25 06:45:19;;;;;;;;;;;;;;;23.02;14.10;98879.38;5055179;28;1570;-66
2022/01/25 06:47:45;;;;;;;;;;;;;;;22.65;14.46;98880.41;5076025;28;1595;-66
2022/01/25 06:50:11;;;;;;;;;;;;;;;22.56;15.05;98878.09;5075896;28;1997;-66
2022/01/25 06:52:38;;;;;;;;;;;;;;;22.94;14.98;98886.41;5076371;28;1597;-73
2022/01/25 06:55:05;;;;;;;;;;;;;;;22.67;14.88;98878.72;5075893;28;897;-73
2022/01/25 06:57:30;;;;;;;;;;;;;;;22.48;15.18;98873.78;5076866;28;902;-73
2022/01/25 06:59:56;;;;;;;;;;;;;;;22.32;15.13;98882.94;5077418;28;1194;-73
2022/01/25 07:02:21;;;;;;;;;;;;;;;21.96;15.49;98880.59;5077684;28;838;-74
2022/01/25 07:04:47;;;;;;;;;;;;;;;22.34;14.96;98884.13;5077392;28;1004;-73
2022/01/25 07:07:12;;;;;;;;;;;;;;;22.50;14.96;98882.66;5077276;28;1071;-73
2022/01/25 07:09:37;;;;;;;;;;;;;;;21.88;15.38;98890.44;5075896;28;1909;-73
2022/01/25 07:12:03;;;;;;;;;;;;;;;21.80;15.34;98889.72;5077147;28;1071;-73
2022/01/25 07:14:29;;;;;;;;;;;;;;;22.27;14.69;98889.88;5057959;28;890;-73
2022/01/25 07:16:54;;;;;;;;;;;;;;;22.37;14.83;98893.78;5054899;28;966;-73
2022/01/25 07:19:20;;;;;;;;;;;;;;;22.22;14.98;98892.41;5054502;28;918;-74
2022/01/25 07:21:45;;;;;;;;;;;;;;;21.26;15.69;98895.22;5054795;28;969;-73
2022/01/25 07:24:11;;;;;;;;;;;;;;;21.67;15.39;98902.06;5014444;28;1051;-73
2022/01/25 07:26:36;;;;;;;;;;;;;;;21.53;15.50;98894.53;4994811;28;1026;-74
2022/01/25 07:29:02;;;;;;;;;;;;;;;22.15;15.11;98896.16;4994917;28;1879;-73
2022/01/25 07:31:27;;;;;;;;;;;;;;;22.45;14.68;98888.81;4979038;28;1206;-73
2022/01/25 07:33:53;;;;;;;;;;;;;;;21.84;15.36;98889.69;4994663;28;971;-74
2022/01/25 07:36:18;;;;;;;;;;;;;;;21.92;15.16;98884.75;4995315;28;973;-74
2022/01/25 07:38:43;;;;;;;;;;;;;;;21.62;15.21;98877.84;4994959;28;985;-73
2022/01/25 07:41:09;;;;;;;;;;;;;;;22.32;14.78;98880.91;4956569;29;969;-73
2022/01/25 07:43:34;;;;;;;;;;;;;;;22.21;14.52;98879.47;4955888;28;960;-73
2022/01/25 07:46:04;;;;;;;;;;;;;;;22.05;14.82;98871.56;4956640;29;940;-73
2022/01/25 07:48:29;;;;;;;;;;;;;;;22.32;14.44;98883.75;4968578;28;1126;-73
2022/01/25 07:50:55;;;;;;;;;;;;;;;22.04;14.74;98881.31;4994846;28;1983;-73
2022/01/25 07:53:20;;;;;;;;;;;;;;;22.17;14.68;98884.38;4994389;28;982;-73
2022/01/25 07:55:46;;;;;;;;;;;;;;;22.93;13.79;98890.47;5502573;22;3933;-73
2022/01/25 07:58:11;;;;;;;;;;;;;;;23.23;13.49;98881.78;5057082;28;821;-73
2022/01/25 08:00:36;;;;;;;;;;;;;;;22.88;13.80;98886.88;5057250;28;766;-74
2022/01/25 08:03:02;;;;;;;;;;;;;;;22.48;13.92;98876.59;5056728;28;1059;-73
2022/01/25 08:05:28;;;;;;;;;;;;;;;22.20;14.45;98878.66;5055766;28;946;-74
2022/01/25 08:07:53;;;;;;;;;;;;;;;22.68;14.21;98885.19;5215517;22;3724;-76
2022/01/25 08:10:19;;;;;;;;;;;;;;;23.04;13.72;98885.41;5076751;28;1929;-76
2022/01/25 08:12:45;;;;;;;;;;;;;;;23.11;13.40;98893.81;5218367;22;3516;-76
2022/01/25 08:15:11;;;;;;;;;;;;;;;23.56;13.08;98894.09;5062582;28;884;-76
2022/01/25 08:17:36;;;;;;;;;;;;;;;22.30;14.30;98883.38;5078759;28;919;-77
2022/01/25 08:20:02;;;;;;;;;;;;;;;21.79;14.96;98887.31;5059053;28;1205;-76
2022/01/25 08:22:28;;;;;;;;;;;;;;;22.48;14.31;98888.75;5062291;28;991;-77
2022/01/25 08:24:53;;;;;;;;;;;;;;;23.20;13.65;98894.00;5058889;28;948;-76
2022/01/25 08:27:20;;;;;;;;;;;;;;;22.47;13.86;98886.34;5061742;28;991;-77
2022/01/25 08:29:49;;;;;;;;;;;;;;;22.14;14.48;98897.41;5059559;28;1902;-76
2022/01/25 08:32:14;;;;;;;;;;;;;;;22.24;14.39;98896.44;5021328;28;1021;-76
2022/01/25 08:34:40;;;;;;;;;;;;;;;22.99;13.51;98886.69;5019693;28;957;-76
2022/01/25 08:37:05;;;;;;;;;;;;;;;23.25;13.19;98884.19;5021330;28;909;-76
2022/01/25 08:39:31;;;;;;;;;;;;;;;22.96;13.68;98890.41;5019586;28;1239;-77
2022/01/25 08:41:56;;;;;;;;;;;;;;;22.33;14.37;98882.53;5020823;28;990;-76
2022/01/25 08:44:22;;;;;;;;;;;;;;;22.23;14.18;98883.50;5019571;28;918;-76
2022/01/25 08:46:47;;;;;;;;;;;;;;;22.25;14.10;98883.84;5021490;28;975;-76
2022/01/25 08:49:12;;;;;;;;;;;;;;;22.15;14.40;98882.00;5019481;28;1898;-76
2022/01/25 08:51:38;;;;;;;;;;;;;;;22.47;14.16;98877.84;5006378;28;1003;-76
2022/01/25 08:54:03;;;;;;;;;;;;;;;22.12;14.61;98882.84;4998654;28;938;-76
2022/01/25 08:56:29;;;;;;;;;;;;;;;22.19;14.17;98865.72;5002157;28;1131;-76
2022/01/25 08:58:54;;;;;;;;;;;;;;;22.21;14.25;98863.25;4998626;28;1020;-76
2022/01/25 09:01:20;;;;;;;;;;;;;;;21.99;14.30;98870.47;5002145;28;980;-76
2022/01/25 09:03:46;;;;;;;;;;;;;;;22.10;14.17;98873.94;5013911;28;980;-76
2022/01/25 09:06:11;;;;;;;;;;;;;;;22.45;14.17;98868.97;5041954;28;922;-76
2022/01/25 09:08:37;;;;;;;;;;;;;;;21.95;14.48;98872.53;5017569;28;915;-76
2022/01/25 09:11:05;;;;;;;;;;;;;;;22.15;14.48;98858.50;5021682;28;1948;-76
2022/01/25 09:13:31;;;;;;;;;;;;;;;21.59;14.95;98856.03;5018314;28;1033;-76
2022/01/25 09:15:56;;;;;;;;;;;;;;;22.22;14.04;98853.53;4982059;28;989;-76
2022/01/25 09:18:22;;;;;;;;;;;;;;;22.30;14.00;98846.53;4959527;28;980;-77
2022/01/25 09:20:47;;;;;;;;;;;;;;;22.55;13.91;98856.66;4964412;28;935;-76
2022/01/25 09:23:16;;;;;;;;;;;;;;;22.12;14.15;98845.97;4965207;28;925;-77
2022/01/25 09:25:41;;;;;;;;;;;;;;;22.39;14.20;98842.34;4985379;28;931;-77
2022/01/25 09:28:07;;;;;;;;;;;;;;;22.41;13.88;98842.72;4983756;28;1059;-77
2022/01/25 09:30:32;;;;;;;;;;;;;;;22.29;14.26;98847.75;4985652;28;1981;-77
2022/01/25 09:32:58;;;;;;;;;;;;;;;21.99;14.30;98840.09;4983876;28;968;-77
2022/01/25 09:35:24;;;;;;;;;;;;;;;21.75;14.57;98842.03;4984926;28;940;-77
2022/01/25 09:37:50;;;;;;;;;;;;;;;22.30;14.05;98832.34;4999975;28;976;-77
2022/01/25 09:40:16;;;;;;;;;;;;;;;22.35;14.16;98829.03;5003441;28;1034;-77
2022/01/25 09:42:41;;;;;;;;;;;;;;;22.36;13.96;98826.97;5003924;28;907;-77
2022/01/25 09:45:07;;;;;;;;;;;;;;;22.54;13.81;98824.66;5002586;28;974;-77
2022/01/25 09:47:33;;;;;;;;;;;;;;;22.57;14.08;98823.78;5004290;28;983;-77
2022/01/25 09:49:58;;;;;;;;;;;;;;;21.92;14.25;98817.53;5016869;28;1987;-77
2022/01/25 09:52:24;;;;;;;;;;;;;;;22.04;14.08;98802.75;5008931;28;1555;-77
2022/01/25 09:54:55;;;;;;;;;;;;;;;21.93;14.22;98801.34;5042310;28;1149;-77
2022/01/25 09:57:21;;;;;;;;;;;;;;;22.20;13.99;98804.97;5044882;28;1402;-77
2022/01/25 09:59:47;;;;;;;;;;;;;;;21.87;14.32;98792.50;5042088;28;1008;-77
2022/01/25 10:02:12;;;;;;;;;;;;;;;22.26;14.27;98808.91;5044751;28;908;-77
2022/01/25 10:04:40;;;;;;;;;;;;;;;21.92;14.36;98791.25;5041797;28;1592;-77
2022/01/25 10:07:08;;;;;;;;;;;;;;;22.32;14.19;98787.34;5044415;28;916;-77
2022/01/25 10:09:33;;;;;;;;;;;;;;;22.15;14.26;98779.94;5041072;28;1987;-77
2022/01/25 10:12:17;;;;;;;;;;;;;;;21.98;14.21;98775.34;5043431;28;1056;-77
2022/01/25 10:14:52;;;;;;;;;;;;;;;22.35;13.81;98772.31;5040242;28;2060;-77
2022/01/25 10:17:28;;;;;;;;;;;;;;;21.73;14.55;98772.91;5043640;28;1044;-77
2022/01/25 10:19:54;;;;;;;;;;;;;;;22.29;14.15;98776.88;5041565;28;1040;-77
2022/01/25 10:22:19;;;;;;;;;;;;;;;21.69;14.72;98766.47;5045565;28;980;-77
2022/01/25 10:24:44;;;;;;;;;;;;;;;21.87;14.18;98774.72;5063210;28;1030;-77
2022/01/25 10:27:10;;;;;;;;;;;;;;;22.11;14.26;98767.84;5065315;28;976;-77
2022/01/25 10:29:36;;;;;;;;;;;;;;;22.40;13.92;98758.88;5062641;28;1887;-77
2022/01/25 10:32:05;;;;;;;;;;;;;;;22.12;14.07;98763.00;5063072;28;919;-77
2022/01/25 10:34:34;;;;;;;;;;;;;;;21.99;14.04;98754.28;5062488;28;950;-78
2022/01/25 10:37:00;;;;;;;;;;;;;;;22.51;13.92;98750.97;5064944;28;974;-76
2022/01/25 10:39:26;;;;;;;;;;;;;;;22.32;13.96;98750.47;5062745;28;1037;-77
2022/01/25 10:41:52;;;;;;;;;;;;;;;21.79;14.31;98746.47;5064691;28;954;-77
2022/01/25 10:44:17;;;;;;;;;;;;;;;21.76;14.41;98744.53;5063117;28;992;-77
2022/01/25 10:46:43;;;;;;;;;;;;;;;22.03;14.09;98740.84;5080480;28;1105;-77
2022/01/25 10:49:09;;;;;;;;;;;;;;;21.52;14.65;98742.84;5062775;28;1946;-77
2022/01/25 10:51:38;;;;;;;;;;;;;;;22.12;14.15;98735.44;5064673;28;970;-77
2022/01/25 10:54:06;;;;;;;;;;;;;;;22.57;13.54;98743.56;5061380;28;1506;-77
2022/01/25 10:56:35;;;;;;;;;;;;;;;22.09;13.99;98736.28;5064781;28;1839;-77
2022/01/25 10:59:01;;;;;;;;;;;;;;;22.12;14.20;98729.78;5061765;28;1694;-77
2022/01/25 11:01:33;;;;;;;;;;;;;;;22.38;13.76;98730.13;5064791;28;1500;-77
2022/01/25 11:04:13;;;;;;;;;;;;;;;22.30;13.96;98727.44;5061324;28;1524;-77
2022/01/25 11:06:39;;;;;;;;;;;;;;;21.67;14.34;98718.75;5063692;28;1505;-77
2022/01/25 11:09:05;;;;;;;;;;;;;;;21.77;14.11;98714.97;5061402;28;1910;-76
2022/01/25 11:11:40;;;;;;;;;;;;;;;22.31;13.80;98723.38;5063744;28;1450;-77
2022/01/25 11:16:51;;;;;;;;;;;;;;;21.74;14.31;98703.69;5063808;28;1371;-77
2022/01/25 11:19:17;;;;;;;;;;;;;;;22.18;13.79;98705.41;5061156;28;1521;-77
2022/01/25 11:21:42;;;;;;;;;;;;;;;21.81;13.98;98710.03;5060726;28;1314;-77
2022/01/25 11:24:08;;;;;;;;;;;;;;;22.00;13.94;98696.38;5059208;28;1492;-77
2022/01/25 11:26:33;;;;;;;;;;;;;;;22.24;13.80;98703.66;5061520;28;1448;-77
2022/01/25 11:28:58;;;;;;;;;;;;;;;21.76;14.35;98693.53;5060703;28;1910;-76
2022/01/25 11:31:24;;;;;;;;;;;;;;;22.19;13.73;98683.53;5042533;28;1028;-77
2022/01/25 11:33:50;;;;;;;;;;;;;;;22.31;13.69;98686.50;5021784;28;1002;-77
2022/01/25 11:36:15;;;;;;;;;;;;;;;22.02;14.08;98685.38;5042145;28;879;-77
2022/01/25 11:38:47;;;;;;;;;;;;;;;22.30;13.93;98693.41;5021188;28;1052;-77
2022/01/25 11:41:13;;;;;;;;;;;;;;;21.60;14.25;98687.69;5042087;28;946;-77
2022/01/25 11:43:41;;;;;;;;;;;;;;;22.07;13.84;98682.06;5037118;28;1024;-76
2022/01/25 11:46:07;;;;;;;;;;;;;;;22.11;13.75;98688.50;5041984;28;1091;-77
2022/01/25 11:48:39;;;;;;;;;;;;;;;21.49;14.63;98687.06;5037698;28;981;-77
2022/01/25 11:51:14;;;;;;;;;;;;;;;21.48;14.30;98676.97;5042224;28;1918;-77
2022/01/25 11:53:40;;;;;;;;;;;;;;;21.83;14.26;98684.91;5037792;28;1474;-77
2022/01/25 11:56:07;;;;;;;;;;;;;;;21.46;14.28;98683.06;5024320;28;1522;-77
2022/01/25 11:58:32;;;;;;;;;;;;;;;22.19;13.82;98684.31;5018273;28;1327;-76
2022/01/25 12:00:59;;;;;;;;;;;;;;;22.42;13.76;98685.50;5022464;28;1544;-76
2022/01/25 12:03:40;;;;;;;;;;;;;;;22.35;13.60;98673.06;5054965;28;1556;-75
2022/01/25 12:06:12;;;;;;;;;;;;;;;21.78;14.09;98668.41;5063720;28;1504;-75
2022/01/25 12:11:30;;;;;;;;;;;;;;;22.56;13.43;98671.84;5063658;28;1913;-75
2022/01/25 12:14:15;;;;;;;;;;;;;;;22.48;13.49;98666.75;5059372;28;1208;-75
2022/01/25 12:16:44;;;;;;;;;;;;;;;21.99;13.64;98669.25;5062365;28;893;-75
2022/01/25 12:19:13;;;;;;;;;;;;;;;22.19;13.80;98670.16;5059253;28;1168;-76
2022/01/25 12:21:45;;;;;;;;;;;;;;;22.99;13.23;98664.53;5062186;28;963;-75
2022/01/25 12:24:29;;;;;;;;;;;;;;;22.77;13.00;98659.28;5060806;28;916;-75
2022/01/25 12:26:58;;;;;;;;;;;;;;;22.29;13.46;98654.97;5062921;28;886;-75
2022/01/25 12:29:37;;;;;;;;;;;;;;;22.05;13.77;98644.88;5060164;28;1906;-75
2022/01/25 12:32:16;;;;;;;;;;;;;;;22.43;13.58;98644.56;5062928;28;1724;-75
2022/01/25 12:34:56;;;;;;;;;;;;;;;22.95;13.02;98641.91;5060756;28;1066;-75
2022/01/25 12:37:40;;;;;;;;;;;;;;;22.44;13.23;98643.38;5061148;28;986;-75
2022/01/25 12:40:25;;;;;;;;;;;;;;;22.05;13.75;98637.16;5076269;28;962;-75
2022/01/25 12:43:00;;;;;;;;;;;;;;;21.56;14.33;98636.00;5058959;28;1386;-75
2022/01/25 12:45:30;;;;;;;;;;;;;;;22.83;13.24;98637.66;5059419;28;1505;-76
2022/01/25 12:47:56;;;;;;;;;;;;;;;23.00;12.56;98626.38;5000080;28;1332;-77
2022/01/25 12:50:21;;;;;;;;;;;;;;;22.00;13.46;98634.81;4999829;28;1903;-76
2022/01/25 12:52:47;;;;;;;;;;;;;;;22.06;13.43;98629.44;5000835;28;1522;-76
2022/01/25 12:55:13;;;;;;;;;;;;;;;22.26;13.60;98630.31;5000577;28;1564;-76
2022/01/25 12:57:44;;;;;;;;;;;;;;;22.14;13.50;98636.63;5004650;28;1632;-76
2022/01/25 13:00:10;;;;;;;;;;;;;;;22.11;13.43;98637.50;4963816;29;1413;-76
2022/01/25 13:02:36;;;;;;;;;;;;;;;22.32;13.42;98633.44;4965550;28;1369;-77
2022/01/25 13:05:01;;;;;;;;;;;;;;;22.49;13.35;98634.34;4964295;29;1479;-75
2022/01/25 13:07:27;;;;;;;;;;;;;;;22.47;13.49;98631.94;4967291;29;1578;-76
2022/01/25 13:09:55;;;;;;;;;;;;;;;22.49;13.28;98625.84;4963907;29;1883;-76
2022/01/25 13:12:30;;;;;;;;;;;;;;;22.55;13.25;98621.25;4927819;29;1532;-77
2022/01/25 13:15:15;;;;;;;;;;;;;;;22.51;13.20;98620.53;4902689;29;1443;-77
2022/01/25 13:17:40;;;;;;;;;;;;;;;22.53;13.14;98612.38;4888337;29;1648;-77
2022/01/25 13:20:06;;;;;;;;;;;;;;;22.75;12.83;98613.53;4951302;29;1484;-77
2022/01/25 13:22:39;;;;;;;;;;;;;;;22.61;13.20;98613.81;4966998;28;1279;-77
2022/01/25 13:25:25;;;;;;;;;;;;;;;22.33;13.07;98616.03;4978309;28;968;-77
2022/01/25 13:27:54;;;;;;;;;;;;;;;22.32;13.53;98613.59;4963554;29;1151;-77
2022/01/25 13:33:04;;;;;;;;;;;;;;;22.42;13.39;98620.28;5001921;28;1017;-77
2022/01/25 13:35:33;;;;;;;;;;;;;;;22.50;13.18;98611.22;5002427;28;988;-77
2022/01/25 13:38:02;;;;;;;;;;;;;;;22.60;13.06;98610.19;5000891;28;971;-76
2022/01/25 13:40:35;;;;;;;;;;;;;;;22.54;13.24;98605.47;5002403;28;989;-77
2022/01/25 13:43:32;;;;;;;;;;;;;;;22.60;13.16;98606.56;5015745;28;972;-77
2022/01/25 13:45:59;;;;;;;;;;;;;;;22.67;12.81;98600.72;5055925;28;956;-77
2022/01/25 13:48:27;;;;;;;;;;;;;;;22.57;13.17;98590.41;5061486;28;943;-77
2022/01/25 13:51:00;;;;;;;;;;;;;;;22.41;13.38;98598.84;5065267;28;1949;-77
2022/01/25 13:53:26;;;;;;;;;;;;;;;22.44;13.10;98593.13;5061344;28;972;-77
2022/01/25 13:55:52;;;;;;;;;;;;;;;22.47;12.96;98592.22;5065259;28;826;-77
2022/01/25 13:58:18;;;;;;;;;;;;;;;22.52;12.97;98593.75;5061721;28;964;-77
2022/01/25 14:00:43;;;;;;;;;;;;;;;22.25;13.24;98591.88;5064938;28;977;-76
2022/01/25 14:03:09;;;;;;;;;;;;;;;22.38;13.17;98594.03;5043385;28;1061;-77
2022/01/25 14:05:37;;;;;;;;;;;;;;;22.47;13.24;98591.44;5063913;28;990;-77
2022/01/25 14:08:03;;;;;;;;;;;;;;;22.33;13.27;98604.69;5062032;28;912;-76
2022/01/25 14:10:29;;;;;;;;;;;;;;;22.58;12.87;98600.50;5062849;28;1898;-77
2022/01/25 14:23:54;;;;;;;;;;;;;;;22.43;12.95;98597.16;5061017;28;1520;-77
2022/01/25 14:26:20;;;;;;;;;;;;;;;22.44;12.98;98593.13;5030650;28;1515;-76
2022/01/25 14:28:54;;;;;;;;;;;;;;;22.78;12.66;98589.13;5062500;28;1473;-76
2022/01/25 14:31:24;;;;;;;;;;;;;;;22.93;12.59;98596.13;5041222;28;1988;-77
2022/01/25 14:33:51;;;;;;;;;;;;;;;22.25;13.15;98597.53;4995524;28;1578;-77
2022/01/25 14:36:17;;;;;;;;;;;;;;;22.36;13.10;98598.13;5016703;28;1581;-77
2022/01/25 14:38:43;;;;;;;;;;;;;;;23.02;12.49;98584.19;4981090;28;1041;-77
2022/01/25 14:41:08;;;;;;;;;;;;;;;22.95;12.51;98592.84;4984787;28;998;-77
2022/01/25 14:43:35;;;;;;;;;;;;;;;22.50;12.90;98591.38;4980690;28;954;-77
2022/01/25 14:46:10;;;;;;;;;;;;;;;21.95;13.40;98587.16;4959629;28;1552;-77
2022/01/25 14:48:37;;;;;;;;;;;;;;;22.77;12.90;98585.50;4971672;28;1450;-78
2022/01/25 14:51:04;;;;;;;;;;;;;;;23.19;12.44;98588.63;4975065;28;1983;-77
2022/01/25 14:53:29;;;;;;;;;;;;;;;22.42;13.04;98597.59;4971574;28;1592;-78
2022/01/25 14:55:57;;;;;;;;;;;;;;;22.34;13.16;98586.44;4967439;28;1689;-74
2022/01/25 14:59:22;;;;;;;;;;;;;;;22.74;12.75;98582.75;4964493;28;999;-75
2022/01/25 15:01:08;;;;;;;;;;;;;;;23.25;12.60;98578.34;4983994;28;975;-76
2022/01/25 15:03:34;;;;;;;;;;;;;;;22.21;13.23;98588.31;5018559;28;1383;-76
2022/01/25 15:05:59;;;;;;;;;;;;;;;22.01;13.65;98581.78;5023132;28;965;-75
2022/01/25 15:08:27;;;;;;;;;;;;;;;22.35;13.07;98587.22;5019325;28;1009;-76
2022/01/25 15:10:52;;;;;;;;;;;;;;;23.16;12.71;98572.50;5021796;28;1914;-76
2022/01/25 15:13:25;;;;;;;;;;;;;;;22.60;12.89;98587.50;5037985;28;1343;-75
2022/01/25 15:15:57;;;;;;;;;;;;;;;21.55;13.90;98580.59;5041616;28;949;-75